AirNav   Pilot Hours Calculator
 
 687 users online  

AZ78 Arizona Bay Airport
Maricopa, Arizona, USA

GOING TO MARICOPA?


FAA INFORMATION EFFECTIVE 02 DECEMBER 2021

Location

FAA Identifier: AZ78
Lat/Long: 33-00-40.0000N 112-16-54.0000W
33-00.666667N 112-16.900000W
33.0111111,-112.2816667
(estimated)
Elevation: 1420 ft. / 433 m (estimated)
Variation: 12E (1990)
From city: 17 miles W of MARICOPA, AZ
Time zone: UTC -7 (year round; does not observe DST)
Zip code: 85239

Airport Operations

Airport use: Private use. Permission required prior to landing
Activation date: 09/1994
Control tower: no
ARTCC: ALBUQUERQUE CENTER
FSS: PRESCOTT FLIGHT SERVICE STATION
Attendance: UNATNDD
Segmented circle: no

Airport Communications

WX AWOS-3 at A39 (18 nm E): 126.900 (520-568-7704)

Nearby radio navigation aids

VOR radial/distance  VOR name  Freq  Var
GBNr067/20.0GILA BEND VORTAC116.6014E
TFDr280/20.2STANFIELD VORTAC114.8012E
PXRr200/29.8PHOENIX VORTAC115.6012E
IWAr228/36.2WILLIE VORTAC113.3013E
BXKr120/38.0BUCKEYE VORTAC110.6014E

Airport Services

Runway Information

Runway 14/32

Dimensions: 2000 x 60 ft. / 610 x 18 m
Surface: dirt
RUNWAY 14  RUNWAY 32
Traffic pattern: leftleft

Airport Ownership and Management from official FAA records

Ownership: Privately-owned
Owner: DILLION AERO, INC
8009 E. DILLIONS WAY
SCOTTSDALE, AZ 85260
Phone 480-333-5450
Manager: KIM IRENE
PO BOX 11682
CHANDLER, AZ 85248
Phone (480) 223-3225

Airport Operational Statistics

Aircraft based on the field: 1
Single engine airplanes: 1
    

Additional Remarks

LANDING WITH WRITTEN PERMISSION.
FOR CD CTC LUKE APCH AT 623-856-7361. IF UNA, CTC PHOENIX APCH AT 602-306-2565.

Instrument Procedures

There are no published instrument procedures at AZ78.

Some nearby airports with instrument procedures:

KGYR - Phoenix Goodyear Airport (25 nm N)
P19 - Stellar Airpark (25 nm NE)
KCGZ - Casa Grande Municipal Airport (26 nm E)
KCHD - Chandler Municipal Airport (28 nm NE)
KPHX - Phoenix Sky Harbor International Airport (29 nm NE)
 
Loc | Ops | Rwys | IFR | FBO | Links
Com | Nav | Svcs | Stats | Notes
Area around AZ78 (Arizona Bay Airport)
 
Road maps at: MapQuest Bing Google
 
Aerial photo
No photo
 
Sectional chart

 
Airport distance calculator
Flying to Arizona Bay Airport? Find the distance to fly.

From to AZ78

Sunrise and sunset
Times for 06-Dec-2021
 Local
(UTC-7)
 Zulu
(UTC)
Morning civil twilight06:5213:52
Sunrise07:1914:19
Sunset17:2100:21
Evening civil twilight17:4800:48

Current date and time
Zulu (UTC)  07-Dec-2021 05:36:06
Local (UTC-7)  06-Dec-2021 22:36:06
 
METAR
KA39 
18nm E 
070515Z AUTO 09005KT 10SM SCT080 BKN095 BKN120 11/M01 A3002 RMK AO2
KGXF 
23nm W 
070458Z AUTO 18004KT 10SM CLR 15/M04 A2995 RMK AO2 SLP137 T01541044 $
KGYR 
25nm N 
070347Z 00000KT 10SM BKN250 15/01 A2995 RMK LAST
KCGZ 
26nm E 
070456Z AUTO 00000KT 10SM CLR 12/M02 A2998 RMK AO2 SLP150 T01221022
KPHX 
28nm NE 
070451Z 07004KT 10SM BKN250 18/02 A2995 RMK AO2 SLP133 T01780022
KCHD 
28nm NE 
070347Z 00000KT 10SM CLR 15/05 A2997 RMK LAST
KLUF 
31nm N 
070458Z AUTO 03004KT 10SM CLR 14/02 A2994 RMK AO2 SLP135 T01370020 $
KGEU 
31nm N 
070250Z 00000KT 10SM SCT250 16/01 A2996 RMK LAST
KBXK 
32nm NW 
070515Z AUTO 11007KT 10SM 15/M01 A2995 RMK A01
KIWA 
36nm NE 
070450Z 10005KT 10SM SCT200 13/M01 A2998
TAF
KPHX 
28nm NE 
070303Z 0703/0806 VRB03KT P6SM OVC250 FM070500 10005KT P6SM OVC250 FM071800 16008KT P6SM OVC250 FM072200 27007KT P6SM SCT150 BKN200 FM080300 VRB06KT P6SM SCT100 BKN120
KLUF 
31nm N 
070400Z 0704/0810 VRB06KT 9999 SCT200 BKN250 QNH2995INS BECMG 0720/0721 34006KT 9999 SCT100 BKN150 QNH2987INS BECMG 0800/0801 VRB06KT 9999 BKN100 OVC150 QNH2982INS TX23/0722Z TN07/0714Z
NOTAMs
Click for the latest NOTAMs
NOTAMs are issued by the DoD/FAA and will open in a separate window not controlled by AirNav.

 

 
 

Would you like to see your business listed on this page?

 If your business provides an interesting product or service to pilots, flight crews, aircraft, or users of the Arizona Bay Airport, you should consider listing it here.  To start the listing process, click on the button below
 
Add a business
 

Other Pages about Arizona Bay Airport

Update a link
 
Copyright © AirNav, LLC. All rights reserved. Privacy Policy  Contact